sensor_id;sensor_type;location;lat;lon;timestamp;pressure;altitude;pressure_sealevel;temperature;humidity
50250;BME280;36133;42.522;27.456;2023-04-05T00:00:28;100377.31;;;6.08;64.31
50250;BME280;36133;42.522;27.456;2023-04-05T00:02:56;100311.75;;;6.60;63.40
50250;BME280;36133;42.522;27.456;2023-04-05T00:05:22;100508.16;;;7.51;62.65
50250;BME280;36133;42.522;27.456;2023-04-05T00:07:56;100655.56;;;8.42;63.50
50250;BME280;36133;42.522;27.456;2023-04-05T00:10:22;100380.09;;;7.35;61.74
50250;BME280;36133;42.522;27.456;2023-04-05T00:12:47;100374.72;;;6.96;62.13
50250;BME280;36133;42.522;27.456;2023-04-05T00:15:15;100643.94;;;8.50;63.36
50250;BME280;36133;42.522;27.456;2023-04-05T00:17:40;100627.22;;;8.15;63.51
50250;BME280;36133;42.522;27.456;2023-04-05T00:20:08;100551.38;;;7.17;64.35
50250;BME280;36133;42.522;27.456;2023-04-05T00:22:37;100653.56;;;8.28;62.97
50250;BME280;36133;42.522;27.456;2023-04-05T00:25:04;100575.22;;;7.92;62.96
50250;BME280;36133;42.522;27.456;2023-04-05T00:27:30;100605.38;;;8.10;63.23
50250;BME280;36133;42.522;27.456;2023-04-05T00:29:55;100584.00;;;7.78;63.92
50250;BME280;36133;42.522;27.456;2023-04-05T00:32:21;100531.53;;;7.26;63.83
50250;BME280;36133;42.522;27.456;2023-04-05T00:34:47;100639.59;;;8.33;62.29
50250;BME280;36133;42.522;27.456;2023-04-05T00:37:14;100645.22;;;8.62;61.39
50250;BME280;36133;42.522;27.456;2023-04-05T00:39:39;100494.50;;;7.05;61.94
50250;BME280;36133;42.522;27.456;2023-04-05T00:42:06;100619.19;;;8.55;61.37
50250;BME280;36133;42.522;27.456;2023-04-05T00:44:34;100665.97;;;8.45;62.20
50250;BME280;36133;42.522;27.456;2023-04-05T00:47:03;100361.72;;;6.69;61.40
50250;BME280;36133;42.522;27.456;2023-04-05T00:49:31;100338.09;;;5.24;64.47
50250;BME280;36133;42.522;27.456;2023-04-05T00:51:57;100141.84;;;4.99;63.21
50250;BME280;36133;42.522;27.456;2023-04-05T00:54:27;100494.16;;;6.60;63.78
50250;BME280;36133;42.522;27.456;2023-04-05T00:56:59;100346.81;;;5.93;63.75
50250;BME280;36133;42.522;27.456;2023-04-05T00:59:26;100107.72;;;5.42;60.76
50250;BME280;36133;42.522;27.456;2023-04-05T01:02:12;100648.56;;;8.17;62.82
50250;BME280;36133;42.522;27.456;2023-04-05T01:04:43;100665.44;;;8.03;62.52
50250;BME280;36133;42.522;27.456;2023-04-05T01:09:58;100675.25;;;8.35;61.38
50250;BME280;36133;42.522;27.456;2023-04-05T01:12:27;100422.91;;;7.76;59.58
50250;BME280;36133;42.522;27.456;2023-04-05T01:14:56;100293.19;;;6.89;58.88
50250;BME280;36133;42.522;27.456;2023-04-05T01:17:23;100196.66;;;6.34;57.48
50250;BME280;36133;42.522;27.456;2023-04-05T01:19:58;100177.69;;;5.72;58.81
50250;BME280;36133;42.522;27.456;2023-04-05T01:25:56;100487.50;;;7.52;59.21
50250;BME280;36133;42.522;27.456;2023-04-05T01:32:14;100682.66;;;8.72;58.29
50250;BME280;36133;42.522;27.456;2023-04-05T01:34:49;100196.66;;;4.95;62.51
50250;BME280;36133;42.522;27.456;2023-04-05T01:37:18;100679.09;;;8.79;60.30
50250;BME280;36133;42.522;27.456;2023-04-05T01:39:45;100527.38;;;7.08;61.80
50250;BME280;36133;42.522;27.456;2023-04-05T01:42:12;100667.00;;;7.64;64.21
50250;BME280;36133;42.522;27.456;2023-04-05T01:44:38;100446.69;;;6.93;62.09
50250;BME280;36133;42.522;27.456;2023-04-05T01:47:04;100615.69;;;8.46;60.00
50250;BME280;36133;42.522;27.456;2023-04-05T01:49:29;100424.53;;;5.93;62.49
50250;BME280;36133;42.522;27.456;2023-04-05T01:51:55;100601.53;;;7.33;62.97
50250;BME280;36133;42.522;27.456;2023-04-05T01:54:20;100600.63;;;7.73;61.98
50250;BME280;36133;42.522;27.456;2023-04-05T01:56:46;100699.56;;;8.58;60.79
50250;BME280;36133;42.522;27.456;2023-04-05T01:59:11;100586.91;;;7.35;61.72
50250;BME280;36133;42.522;27.456;2023-04-05T02:01:37;100467.44;;;7.23;61.17
50250;BME280;36133;42.522;27.456;2023-04-05T02:04:02;100190.47;;;4.87;62.84
50250;BME280;36133;42.522;27.456;2023-04-05T02:06:28;100666.81;;;7.74;61.94
50250;BME280;36133;42.522;27.456;2023-04-05T02:08:55;100511.78;;;7.03;61.71
50250;BME280;36133;42.522;27.456;2023-04-05T02:11:20;100481.88;;;7.22;60.99
50250;BME280;36133;42.522;27.456;2023-04-05T02:13:49;100436.97;;;6.92;59.89
50250;BME280;36133;42.522;27.456;2023-04-05T02:16:14;100651.09;;;8.18;60.14
50250;BME280;36133;42.522;27.456;2023-04-05T02:18:41;100441.03;;;6.55;61.54
50250;BME280;36133;42.522;27.456;2023-04-05T02:21:08;100718.56;;;8.56;60.70
50250;BME280;36133;42.522;27.456;2023-04-05T02:23:36;100734.13;;;9.08;59.73
50250;BME280;36133;42.522;27.456;2023-04-05T02:26:02;100284.44;;;6.56;58.15
50250;BME280;36133;42.522;27.456;2023-04-05T02:28:28;100234.09;;;6.11;58.49
50250;BME280;36133;42.522;27.456;2023-04-05T02:30:54;100612.00;;;7.91;60.13
50250;BME280;36133;42.522;27.456;2023-04-05T02:33:20;100570.88;;;8.22;58.76
50250;BME280;36133;42.522;27.456;2023-04-05T02:35:48;100526.56;;;6.91;60.95
50250;BME280;36133;42.522;27.456;2023-04-05T02:38:14;100715.44;;;9.60;58.07
50250;BME280;36133;42.522;27.456;2023-04-05T02:40:40;100649.78;;;8.54;59.16
50250;BME280;36133;42.522;27.456;2023-04-05T02:43:06;100613.69;;;7.92;61.15
50250;BME280;36133;42.522;27.456;2023-04-05T02:45:31;100718.44;;;8.89;59.98
50250;BME280;36133;42.522;27.456;2023-04-05T02:47:57;100501.53;;;7.70;58.56
50250;BME280;36133;42.522;27.456;2023-04-05T02:50:23;100206.44;;;5.78;59.09
50250;BME280;36133;42.522;27.456;2023-04-05T02:52:49;100768.00;;;8.63;60.70
50250;BME280;36133;42.522;27.456;2023-04-05T02:55:15;100331.22;;;6.37;59.42
50250;BME280;36133;42.522;27.456;2023-04-05T02:57:44;100753.63;;;8.15;61.68
50250;BME280;36133;42.522;27.456;2023-04-05T03:00:10;100745.59;;;8.71;60.41
50250;BME280;36133;42.522;27.456;2023-04-05T03:02:36;100295.53;;;5.64;60.75
50250;BME280;36133;42.522;27.456;2023-04-05T03:05:04;100506.44;;;6.79;62.26
50250;BME280;36133;42.522;27.456;2023-04-05T03:07:30;100404.47;;;6.62;60.13
50250;BME280;36133;42.522;27.456;2023-04-05T03:09:57;100793.84;;;8.80;60.72
50250;BME280;36133;42.522;27.456;2023-04-05T03:12:24;100468.00;;;6.94;60.52
50250;BME280;36133;42.522;27.456;2023-04-05T03:14:49;100604.41;;;7.07;61.91
50250;BME280;36133;42.522;27.456;2023-04-05T03:17:15;100780.84;;;8.45;60.21
50250;BME280;36133;42.522;27.456;2023-04-05T03:19:41;100620.66;;;7.46;60.76
50250;BME280;36133;42.522;27.456;2023-04-05T03:22:07;100629.88;;;7.76;60.47
50250;BME280;36133;42.522;27.456;2023-04-05T03:24:32;100445.13;;;5.93;62.04
50250;BME280;36133;42.522;27.456;2023-04-05T03:27:00;100575.19;;;7.20;59.99
50250;BME280;36133;42.522;27.456;2023-04-05T03:29:26;100729.13;;;7.94;60.44
50250;BME280;36133;42.522;27.456;2023-04-05T03:31:52;100792.53;;;8.68;59.69
50250;BME280;36133;42.522;27.456;2023-04-05T03:34:18;100654.81;;;8.88;56.80
50250;BME280;36133;42.522;27.456;2023-04-05T03:36:43;100498.84;;;6.33;60.75
50250;BME280;36133;42.522;27.456;2023-04-05T03:39:12;100315.84;;;6.07;58.19
50250;BME280;36133;42.522;27.456;2023-04-05T03:41:39;100789.91;;;8.99;59.21
50250;BME280;36133;42.522;27.456;2023-04-05T03:44:06;100765.81;;;8.59;59.71
50250;BME280;36133;42.522;27.456;2023-04-05T03:46:31;100581.72;;;8.06;58.32
50250;BME280;36133;42.522;27.456;2023-04-05T03:48:58;100543.75;;;8.40;57.35
50250;BME280;36133;42.522;27.456;2023-04-05T03:51:24;100652.53;;;7.90;58.60
50250;BME280;36133;42.522;27.456;2023-04-05T03:53:50;100572.47;;;7.37;61.46
50250;BME280;36133;42.522;27.456;2023-04-05T03:56:16;100212.47;;;5.39;59.71
50250;BME280;36133;42.522;27.456;2023-04-05T03:58:42;100766.09;;;8.00;60.79
50250;BME280;36133;42.522;27.456;2023-04-05T04:01:08;100351.16;;;5.27;60.96
50250;BME280;36133;42.522;27.456;2023-04-05T04:03:34;100698.41;;;7.48;60.14
50250;BME280;36133;42.522;27.456;2023-04-05T04:06:08;100671.56;;;8.28;58.28
50250;BME280;36133;42.522;27.456;2023-04-05T04:08:33;100506.50;;;5.78;61.11
50250;BME280;36133;42.522;27.456;2023-04-05T04:10:59;100750.78;;;7.60;61.36
50250;BME280;36133;42.522;27.456;2023-04-05T04:13:25;100759.19;;;8.06;60.54
50250;BME280;36133;42.522;27.456;2023-04-05T04:15:51;100793.38;;;8.77;58.08
50250;BME280;36133;42.522;27.456;2023-04-05T04:18:16;100403.59;;;6.86;57.00
50250;BME280;36133;42.522;27.456;2023-04-05T04:20:42;100396.88;;;7.38;56.02
50250;BME280;36133;42.522;27.456;2023-04-05T04:23:08;100555.31;;;9.32;54.55
50250;BME280;36133;42.522;27.456;2023-04-05T04:25:35;100838.09;;;11.22;53.98
50250;BME280;36133;42.522;27.456;2023-04-05T04:28:04;100807.41;;;10.26;54.98
50250;BME280;36133;42.522;27.456;2023-04-05T04:30:34;100658.00;;;9.14;55.50
50250;BME280;36133;42.522;27.456;2023-04-05T04:33:00;100574.34;;;8.70;56.26
50250;BME280;36133;42.522;27.456;2023-04-05T04:35:29;100692.66;;;9.17;56.28
50250;BME280;36133;42.522;27.456;2023-04-05T04:37:57;100751.31;;;9.07;57.76
50250;BME280;36133;42.522;27.456;2023-04-05T04:40:30;100575.78;;;8.80;56.05
50250;BME280;36133;42.522;27.456;2023-04-05T04:43:13;100379.13;;;6.73;56.79
50250;BME280;36133;42.522;27.456;2023-04-05T04:45:42;100462.78;;;7.64;55.78
50250;BME280;36133;42.522;27.456;2023-04-05T04:48:11;100880.63;;;10.00;56.23
50250;BME280;36133;42.522;27.456;2023-04-05T04:50:39;100766.94;;;8.80;57.35
50250;BME280;36133;42.522;27.456;2023-04-05T04:53:05;100681.69;;;8.73;54.64
50250;BME280;36133;42.522;27.456;2023-04-05T04:55:31;100884.19;;;10.61;54.82
50250;BME280;36133;42.522;27.456;2023-04-05T04:57:58;100510.38;;;8.18;54.83
50250;BME280;36133;42.522;27.456;2023-04-05T05:00:24;100617.03;;;9.42;53.99
50250;BME280;36133;42.522;27.456;2023-04-05T05:02:51;100493.53;;;8.78;52.88
50250;BME280;36133;42.522;27.456;2023-04-05T05:05:17;100791.44;;;9.79;54.37
50250;BME280;36133;42.522;27.456;2023-04-05T05:07:47;100871.94;;;10.88;54.42
50250;BME280;36133;42.522;27.456;2023-04-05T05:10:13;100605.19;;;9.28;54.42
50250;BME280;36133;42.522;27.456;2023-04-05T05:12:43;100703.84;;;9.75;53.70
50250;BME280;36133;42.522;27.456;2023-04-05T05:15:09;100736.44;;;10.03;53.72
50250;BME280;36133;42.522;27.456;2023-04-05T05:17:35;100610.34;;;9.37;53.44
50250;BME280;36133;42.522;27.456;2023-04-05T05:20:02;100502.22;;;8.65;53.11
50250;BME280;36133;42.522;27.456;2023-04-05T05:22:35;100802.72;;;11.17;52.85
50250;BME280;36133;42.522;27.456;2023-04-05T05:25:02;100889.78;;;11.99;51.40
50250;BME280;36133;42.522;27.456;2023-04-05T05:27:28;100684.53;;;10.01;53.65
50250;BME280;36133;42.522;27.456;2023-04-05T05:29:53;100819.53;;;11.33;51.49
50250;BME280;36133;42.522;27.456;2023-04-05T05:32:20;100693.22;;;9.58;54.20
50250;BME280;36133;42.522;27.456;2023-04-05T05:34:47;100847.44;;;11.55;51.94
50250;BME280;36133;42.522;27.456;2023-04-05T05:37:13;100837.78;;;11.82;51.09
50250;BME280;36133;42.522;27.456;2023-04-05T05:39:39;100410.03;;;9.45;50.98
50250;BME280;36133;42.522;27.456;2023-04-05T05:42:05;100397.91;;;8.21;51.73
50250;BME280;36133;42.522;27.456;2023-04-05T05:44:31;100451.41;;;8.16;53.50
50250;BME280;36133;42.522;27.456;2023-04-05T05:46:57;100751.75;;;10.99;51.43
50250;BME280;36133;42.522;27.456;2023-04-05T05:49:23;100738.69;;;10.14;52.08
50250;BME280;36133;42.522;27.456;2023-04-05T05:51:49;100680.88;;;12.10;48.14
50250;BME280;36133;42.522;27.456;2023-04-05T05:54:17;100742.19;;;13.00;46.95
50250;BME280;36133;42.522;27.456;2023-04-05T05:56:45;100895.22;;;13.87;46.38
50250;BME280;36133;42.522;27.456;2023-04-05T05:59:13;100801.03;;;12.37;47.55
50250;BME280;36133;42.522;27.456;2023-04-05T06:01:40;100406.66;;;9.28;50.13
50250;BME280;36133;42.522;27.456;2023-04-05T06:04:13;100477.81;;;9.19;51.02
50250;BME280;36133;42.522;27.456;2023-04-05T06:06:46;100507.84;;;9.31;51.74
50250;BME280;36133;42.522;27.456;2023-04-05T06:09:20;100750.03;;;12.47;48.96
50250;BME280;36133;42.522;27.456;2023-04-05T06:11:50;100427.19;;;10.52;48.66
50250;BME280;36133;42.522;27.456;2023-04-05T06:14:16;100758.84;;;12.56;48.39
50250;BME280;36133;42.522;27.456;2023-04-05T06:16:47;100669.94;;;11.90;48.66
50250;BME280;36133;42.522;27.456;2023-04-05T06:19:13;100447.84;;;11.51;45.07
50250;BME280;36133;42.522;27.456;2023-04-05T06:21:42;100621.31;;;13.12;44.21
50250;BME280;36133;42.522;27.456;2023-04-05T06:24:12;100397.56;;;11.56;44.34
50250;BME280;36133;42.522;27.456;2023-04-05T06:26:38;100437.28;;;13.69;40.83
50250;BME280;36133;42.522;27.456;2023-04-05T06:32:31;100748.53;;;16.87;37.56
50250;BME280;36133;42.522;27.456;2023-04-05T06:34:59;100736.81;;;13.13;44.04
50250;BME280;36133;42.522;27.456;2023-04-05T06:37:28;100517.44;;;11.70;44.03
50250;BME280;36133;42.522;27.456;2023-04-05T06:39:54;100416.03;;;11.94;43.45
50250;BME280;36133;42.522;27.456;2023-04-05T06:42:20;100551.41;;;12.95;41.96
50250;BME280;36133;42.522;27.456;2023-04-05T06:44:45;100750.22;;;12.74;46.86
50250;BME280;36133;42.522;27.456;2023-04-05T06:47:11;100866.56;;;13.58;45.24
50250;BME280;36133;42.522;27.456;2023-04-05T06:49:40;100386.16;;;12.55;43.24
50250;BME280;36133;42.522;27.456;2023-04-05T06:52:12;100438.50;;;10.41;46.10
50250;BME280;36133;42.522;27.456;2023-04-05T06:54:38;100443.47;;;10.38;47.46
50250;BME280;36133;42.522;27.456;2023-04-05T06:57:04;100757.59;;;12.24;45.65
50250;BME280;36133;42.522;27.456;2023-04-05T06:59:37;100599.72;;;11.05;47.31
50250;BME280;36133;42.522;27.456;2023-04-05T07:02:02;100525.53;;;10.65;48.04
50250;BME280;36133;42.522;27.456;2023-04-05T07:04:31;100610.56;;;11.33;48.16
50250;BME280;36133;42.522;27.456;2023-04-05T07:07:04;100914.19;;;13.26;47.99
50250;BME280;36133;42.522;27.456;2023-04-05T07:09:37;100402.84;;;10.24;47.04
50250;BME280;36133;42.522;27.456;2023-04-05T07:12:06;100384.22;;;10.30;46.47
50250;BME280;36133;42.522;27.456;2023-04-05T07:14:34;100388.13;;;11.39;44.68
50250;BME280;36133;42.522;27.456;2023-04-05T07:17:03;100447.22;;;13.24;42.35
50250;BME280;36133;42.522;27.456;2023-04-05T07:19:30;100421.47;;;10.41;46.12
50250;BME280;36133;42.522;27.456;2023-04-05T07:21:56;100337.75;;;9.91;46.43
50250;BME280;36133;42.522;27.456;2023-04-05T07:24:26;100944.00;;;14.34;44.94
50250;BME280;36133;42.522;27.456;2023-04-05T07:27:10;100334.41;;;9.89;45.92
50250;BME280;36133;42.522;27.456;2023-04-05T07:29:36;100944.34;;;15.50;43.22
50250;BME280;36133;42.522;27.456;2023-04-05T07:32:07;100952.34;;;16.98;39.92
50250;BME280;36133;42.522;27.456;2023-04-05T07:34:34;100647.72;;;15.57;38.51
50250;BME280;36133;42.522;27.456;2023-04-05T07:37:06;100478.94;;;13.88;41.04
50250;BME280;36133;42.522;27.456;2023-04-05T07:39:35;100417.41;;;11.77;42.80
50250;BME280;36133;42.522;27.456;2023-04-05T07:42:04;100476.69;;;11.09;45.48
50250;BME280;36133;42.522;27.456;2023-04-05T07:44:30;100784.28;;;12.27;46.38
50250;BME280;36133;42.522;27.456;2023-04-05T07:47:05;100658.63;;;12.56;44.72
50250;BME280;36133;42.522;27.456;2023-04-05T07:49:33;100440.41;;;11.53;43.91
50250;BME280;36133;42.522;27.456;2023-04-05T07:51:59;100993.63;;;15.03;42.88
50250;BME280;36133;42.522;27.456;2023-04-05T07:57:15;100429.59;;;11.18;43.34
50250;BME280;36133;42.522;27.456;2023-04-05T07:59:41;100452.34;;;12.32;41.64
50250;BME280;36133;42.522;27.456;2023-04-05T08:02:10;100802.53;;;14.29;42.04
50250;BME280;36133;42.522;27.456;2023-04-05T08:04:47;100799.44;;;16.50;38.00
50250;BME280;36133;42.522;27.456;2023-04-05T08:07:15;100996.88;;;16.60;39.16
50250;BME280;36133;42.522;27.456;2023-04-05T08:09:41;100774.53;;;17.68;35.90
50250;BME280;36133;42.522;27.456;2023-04-05T08:12:10;100475.19;;;16.01;35.37
50250;BME280;36133;42.522;27.456;2023-04-05T08:14:38;100477.69;;;15.66;35.77
50250;BME280;36133;42.522;27.456;2023-04-05T08:17:04;100800.75;;;17.39;36.26
50250;BME280;36133;42.522;27.456;2023-04-05T08:19:37;100442.53;;;14.78;37.26
50250;BME280;36133;42.522;27.456;2023-04-05T08:22:02;100456.88;;;15.10;37.26
50250;BME280;36133;42.522;27.456;2023-04-05T08:24:28;100772.59;;;15.40;39.64
50250;BME280;36133;42.522;27.456;2023-04-05T08:26:54;100587.25;;;16.53;36.61
50250;BME280;36133;42.522;27.456;2023-04-05T08:29:20;100839.25;;;18.97;34.97
50250;BME280;36133;42.522;27.456;2023-04-05T08:31:46;100667.03;;;17.39;34.60
50250;BME280;36133;42.522;27.456;2023-04-05T08:34:14;100792.03;;;18.32;34.83
50250;BME280;36133;42.522;27.456;2023-04-05T08:36:45;100470.66;;;17.44;33.25
50250;BME280;36133;42.522;27.456;2023-04-05T08:39:10;100597.50;;;16.88;34.55
50250;BME280;36133;42.522;27.456;2023-04-05T08:41:40;100698.16;;;18.14;33.11
50250;BME280;36133;42.522;27.456;2023-04-05T08:44:08;100477.06;;;17.61;32.36
50250;BME280;36133;42.522;27.456;2023-04-05T08:46:45;100775.16;;;20.41;31.55
50250;BME280;36133;42.522;27.456;2023-04-05T08:49:17;100960.06;;;19.88;33.25
50250;BME280;36133;42.522;27.456;2023-04-05T08:51:47;100528.09;;;17.96;32.83
50250;BME280;36133;42.522;27.456;2023-04-05T08:54:16;100660.91;;;16.28;35.43
50250;BME280;36133;42.522;27.456;2023-04-05T08:56:46;100718.84;;;15.67;38.41
50250;BME280;36133;42.522;27.456;2023-04-05T08:59:17;100973.44;;;19.02;35.50
50250;BME280;36133;42.522;27.456;2023-04-05T09:01:47;100496.97;;;16.91;33.73
50250;BME280;36133;42.522;27.456;2023-04-05T09:04:20;100703.28;;;18.34;33.42
50250;BME280;36133;42.522;27.456;2023-04-05T09:07:03;100461.69;;;17.08;32.67
50250;BME280;36133;42.522;27.456;2023-04-05T09:09:31;100797.38;;;17.73;35.24
50250;BME280;36133;42.522;27.456;2023-04-05T09:12:04;100413.91;;;16.52;33.49
50250;BME280;36133;42.522;27.456;2023-04-05T09:14:46;100954.38;;;21.52;31.38
50250;BME280;36133;42.522;27.456;2023-04-05T09:17:19;100507.03;;;18.48;31.89
50250;BME280;36133;42.522;27.456;2023-04-05T09:19:45;100509.94;;;18.70;32.15
50250;BME280;36133;42.522;27.456;2023-04-05T09:22:17;100984.03;;;20.66;32.01
50250;BME280;36133;42.522;27.456;2023-04-05T09:24:48;100999.38;;;19.35;34.31
50250;BME280;36133;42.522;27.456;2023-04-05T09:27:27;100468.41;;;16.94;32.84
50250;BME280;36133;42.522;27.456;2023-04-05T09:29:55;100515.28;;;20.97;28.91
50250;BME280;36133;42.522;27.456;2023-04-05T09:32:30;100968.94;;;22.72;29.65
50250;BME280;36133;42.522;27.456;2023-04-05T09:35:05;100790.00;;;18.51;33.40
50250;BME280;36133;42.522;27.456;2023-04-05T09:37:35;100979.16;;;18.59;35.63
50250;BME280;36133;42.522;27.456;2023-04-05T09:40:07;100428.72;;;13.65;37.88
50250;BME280;36133;42.522;27.456;2023-04-05T09:42:47;100409.06;;;14.78;36.23
50250;BME280;36133;42.522;27.456;2023-04-05T09:45:26;100627.94;;;15.12;37.63
50250;BME280;36133;42.522;27.456;2023-04-05T09:48:04;100787.66;;;15.36;39.55
50250;BME280;36133;42.522;27.456;2023-04-05T09:50:38;100460.53;;;13.05;39.91
50250;BME280;36133;42.522;27.456;2023-04-05T09:53:11;100422.81;;;13.24;38.57
50250;BME280;36133;42.522;27.456;2023-04-05T09:56:23;100382.31;;;13.80;37.51
50250;BME280;36133;42.522;27.456;2023-04-05T09:59:05;100535.47;;;15.18;36.98
50250;BME280;36133;42.522;27.456;2023-04-05T10:01:33;100464.31;;;13.95;37.29
50250;BME280;36133;42.522;27.456;2023-04-05T10:04:03;100471.53;;;13.63;38.48
50250;BME280;36133;42.522;27.456;2023-04-05T10:06:49;100667.47;;;13.65;40.55
50250;BME280;36133;42.522;27.456;2023-04-05T10:09:30;100612.97;;;13.87;39.99
50250;BME280;36133;42.522;27.456;2023-04-05T10:12:10;100995.59;;;15.80;40.88
50250;BME280;36133;42.522;27.456;2023-04-05T10:15:00;100597.69;;;15.02;38.31
50250;BME280;36133;42.522;27.456;2023-04-05T10:17:51;100983.28;;;17.10;38.94
50250;BME280;36133;42.522;27.456;2023-04-05T10:21:04;100457.69;;;13.85;38.96
50250;BME280;36133;42.522;27.456;2023-04-05T10:23:34;100494.97;;;15.53;36.36
50250;BME280;36133;42.522;27.456;2023-04-05T10:28:46;100497.50;;;15.30;35.75
50250;BME280;36133;42.522;27.456;2023-04-05T10:34:24;100976.66;;;18.58;34.49
50250;BME280;36133;42.522;27.456;2023-04-05T10:37:06;100484.03;;;14.60;36.17
50250;BME280;36133;42.522;27.456;2023-04-05T10:39:51;100831.16;;;16.69;36.92
50250;BME280;36133;42.522;27.456;2023-04-05T10:42:41;100998.19;;;16.51;38.40
50250;BME280;36133;42.522;27.456;2023-04-05T10:45:12;100825.66;;;15.94;38.05
50250;BME280;36133;42.522;27.456;2023-04-05T10:54:04;100978.97;;;17.82;36.17
50250;BME280;36133;42.522;27.456;2023-04-05T10:56:36;100781.22;;;15.24;38.11
50250;BME280;36133;42.522;27.456;2023-04-05T10:59:07;100483.31;;;15.46;35.43
50250;BME280;36133;42.522;27.456;2023-04-05T11:01:38;100773.56;;;17.32;34.61
50250;BME280;36133;42.522;27.456;2023-04-05T11:06:40;101003.56;;;17.82;36.12
50250;BME280;36133;42.522;27.456;2023-04-05T11:09:21;100485.06;;;14.21;36.79
50250;BME280;36133;42.522;27.456;2023-04-05T11:12:02;100989.94;;;17.57;36.56
50250;BME280;36133;42.522;27.456;2023-04-05T11:17:35;100448.22;;;14.00;37.46
50250;BME280;36133;42.522;27.456;2023-04-05T11:20:05;100472.06;;;14.68;36.54
50250;BME280;36133;42.522;27.456;2023-04-05T11:22:33;100979.09;;;16.83;38.13
50250;BME280;36133;42.522;27.456;2023-04-05T11:25:03;100973.28;;;17.84;36.67
50250;BME280;36133;42.522;27.456;2023-04-05T11:27:34;100425.19;;;14.48;36.38
50250;BME280;36133;42.522;27.456;2023-04-05T11:30:12;100987.75;;;16.41;38.06
50250;BME280;36133;42.522;27.456;2023-04-05T11:32:46;100629.25;;;15.66;35.87
50250;BME280;36133;42.522;27.456;2023-04-05T11:35:18;100624.06;;;16.26;35.10
50250;BME280;36133;42.522;27.456;2023-04-05T11:40:38;100975.97;;;17.47;36.72
50250;BME280;36133;42.522;27.456;2023-04-05T11:43:09;100788.94;;;17.45;35.62
50250;BME280;36133;42.522;27.456;2023-04-05T11:45:44;100982.56;;;18.85;34.55
50250;BME280;36133;42.522;27.456;2023-04-05T11:48:50;100685.97;;;15.94;36.17
50250;BME280;36133;42.522;27.456;2023-04-05T11:51:34;100441.34;;;15.17;35.61
50250;BME280;36133;42.522;27.456;2023-04-05T11:54:36;100980.78;;;17.70;36.87
50250;BME280;36133;42.522;27.456;2023-04-05T11:57:29;100994.47;;;17.64;36.88
50250;BME280;36133;42.522;27.456;2023-04-05T12:00:03;100530.50;;;15.34;36.57
50250;BME280;36133;42.522;27.456;2023-04-05T12:02:33;100992.63;;;17.82;36.22
50250;BME280;36133;42.522;27.456;2023-04-05T12:05:01;100987.66;;;18.09;35.74
50250;BME280;36133;42.522;27.456;2023-04-05T12:07:28;100517.31;;;14.56;36.57
50250;BME280;36133;42.522;27.456;2023-04-05T12:10:11;100582.00;;;14.21;37.82
50250;BME280;36133;42.522;27.456;2023-04-05T12:12:41;100839.53;;;16.18;37.95
50250;BME280;36133;42.522;27.456;2023-04-05T12:15:17;100670.84;;;14.65;38.80
50250;BME280;36133;42.522;27.456;2023-04-05T12:17:52;100441.97;;;12.56;40.02
50250;BME280;36133;42.522;27.456;2023-04-05T12:20:56;100481.19;;;13.00;39.88
50250;BME280;36133;42.522;27.456;2023-04-05T12:23:34;101020.69;;;16.72;39.08
50250;BME280;36133;42.522;27.456;2023-04-05T12:26:26;100822.13;;;16.44;37.94
50250;BME280;36133;42.522;27.456;2023-04-05T12:31:59;101012.34;;;16.28;39.79
50250;BME280;36133;42.522;27.456;2023-04-05T12:37:38;100513.44;;;14.25;38.62
50250;BME280;36133;42.522;27.456;2023-04-05T12:40:28;100478.06;;;14.07;38.66
50250;BME280;36133;42.522;27.456;2023-04-05T12:43:14;100697.88;;;15.05;39.20
50250;BME280;36133;42.522;27.456;2023-04-05T12:45:46;100813.91;;;16.00;38.86
50250;BME280;36133;42.522;27.456;2023-04-05T12:48:24;101000.84;;;16.26;39.89
50250;BME280;36133;42.522;27.456;2023-04-05T12:51:02;100467.41;;;13.01;39.79
50250;BME280;36133;42.522;27.456;2023-04-05T12:53:29;100466.53;;;14.50;37.55
50250;BME280;36133;42.522;27.456;2023-04-05T12:56:05;100821.50;;;16.66;37.45
50250;BME280;36133;42.522;27.456;2023-04-05T12:58:37;100479.09;;;13.15;39.56
50250;BME280;36133;42.522;27.456;2023-04-05T13:01:16;100468.69;;;13.18;39.53
50250;BME280;36133;42.522;27.456;2023-04-05T13:03:50;100984.28;;;17.77;37.39
50250;BME280;36133;42.522;27.456;2023-04-05T13:06:20;100764.81;;;16.75;36.58
50250;BME280;36133;42.522;27.456;2023-04-05T13:08:46;100548.78;;;15.76;35.83
50250;BME280;36133;42.522;27.456;2023-04-05T13:11:20;100590.66;;;15.94;35.93
50250;BME280;36133;42.522;27.456;2023-04-05T13:14:06;100492.97;;;15.42;35.92
50250;BME280;36133;42.522;27.456;2023-04-05T13:16:50;100470.06;;;14.19;37.28
50250;BME280;36133;42.522;27.456;2023-04-05T13:19:26;100473.91;;;15.67;35.23
50250;BME280;36133;42.522;27.456;2023-04-05T13:24:30;100557.84;;;16.25;34.73
50250;BME280;36133;42.522;27.456;2023-04-05T13:27:01;100880.59;;;18.42;34.61
50250;BME280;36133;42.522;27.456;2023-04-05T13:32:02;100827.06;;;17.70;34.61
50250;BME280;36133;42.522;27.456;2023-04-05T13:34:36;100529.03;;;13.98;37.88
50250;BME280;36133;42.522;27.456;2023-04-05T13:37:21;100362.00;;;11.53;42.06
50250;BME280;36133;42.522;27.456;2023-04-05T13:45:31;101015.66;;;14.40;46.62
50250;BME280;36133;42.522;27.456;2023-04-05T13:48:17;100644.19;;;12.01;47.74
50250;BME280;36133;42.522;27.456;2023-04-05T13:51:06;100424.47;;;10.74;47.43
50250;BME280;36133;42.522;27.456;2023-04-05T13:53:38;100452.84;;;10.63;48.36
50250;BME280;36133;42.522;27.456;2023-04-05T13:58:59;100751.09;;;13.35;46.46